createdAt,value
2022-10-14T00:01:39.067Z,95.39
2022-10-14T00:04:06.492Z,95.66
2022-10-14T00:06:34.493Z,95.62
2022-10-14T00:09:05.176Z,95.89
2022-10-14T00:11:33.282Z,95.80
2022-10-14T00:14:06.239Z,96.25
2022-10-14T00:16:39.245Z,96.89
2022-10-14T00:19:07.706Z,96.93
2022-10-14T00:21:36.767Z,96.92
2022-10-14T00:24:05.744Z,96.81
2022-10-14T00:26:35.959Z,96.91
2022-10-14T00:29:05.215Z,96.31
2022-10-14T00:31:32.817Z,96.31
2022-10-14T00:33:59.989Z,95.97
2022-10-14T00:36:27.422Z,95.42
2022-10-14T00:38:55.265Z,95.68
2022-10-14T00:41:30.274Z,95.75
2022-10-14T00:44:06.099Z,95.99
2022-10-14T00:46:35.711Z,96.59
2022-10-14T00:49:10.671Z,96.65
2022-10-14T00:51:40.015Z,96.50
2022-10-14T00:54:08.137Z,96.84
2022-10-14T00:56:35.911Z,96.44
2022-10-14T00:59:05.068Z,96.52
2022-10-14T01:01:32.517Z,96.77
2022-10-14T01:03:59.471Z,97.26
2022-10-14T01:06:43.402Z,97.06
2022-10-14T01:09:10.487Z,96.98
2022-10-14T01:15:19.760Z,96.88
2022-10-14T01:18:00.421Z,96.79
2022-10-14T01:20:56.722Z,96.62
2022-10-14T01:23:36.150Z,96.63
2022-10-14T01:26:15.296Z,96.49
2022-10-14T01:29:00.869Z,96.38
2022-10-14T01:31:35.036Z,96.24
2022-10-14T01:34:08.503Z,96.59
2022-10-14T01:36:54.694Z,96.34
2022-10-14T01:39:30.123Z,96.76
2022-10-14T01:42:48.180Z,96.97
2022-10-14T01:45:20.712Z,97.10
2022-10-14T01:47:53.440Z,97.08
2022-10-14T01:50:24.083Z,97.34
2022-10-14T01:52:58.471Z,97.67
2022-10-14T01:55:31.090Z,98.07
2022-10-14T01:58:00.160Z,98.30
2022-10-14T02:00:27.414Z,98.71
2022-10-14T02:02:54.430Z,99.14
2022-10-14T02:05:32.146Z,99.05
2022-10-14T02:08:11.053Z,98.85
2022-10-14T02:11:19.927Z,99.13
2022-10-14T02:14:02.065Z,98.51
2022-10-14T02:16:45.251Z,98.16
2022-10-14T02:19:42.883Z,97.87
2022-10-14T02:22:40.058Z,97.60
2022-10-14T02:25:24.152Z,97.79
2022-10-14T02:27:53.397Z,98.27
2022-10-14T02:30:21.607Z,98.86
2022-10-14T02:32:57.663Z,99.05
2022-10-14T02:35:25.409Z,99.12
2022-10-14T02:37:56.749Z,98.85
2022-10-14T02:40:26.919Z,99.02
2022-10-14T02:42:54.794Z,98.98
2022-10-14T02:45:24.558Z,99.06
2022-10-14T02:47:51.538Z,98.92
2022-10-14T02:50:19.195Z,98.71
2022-10-14T02:52:46.163Z,98.81
2022-10-14T02:55:14.294Z,98.99
2022-10-14T02:57:41.763Z,99.18
2022-10-14T03:00:09.434Z,98.88
2022-10-14T03:02:37.074Z,98.81
2022-10-14T03:05:05.262Z,98.80
2022-10-14T03:07:32.433Z,98.84
2022-10-14T03:10:03.021Z,99.49
2022-10-14T03:12:33.685Z,99.71
2022-10-14T03:15:00.806Z,99.31
2022-10-14T03:17:28.958Z,99.15
2022-10-14T03:20:00.098Z,99.03
2022-10-14T03:22:27.158Z,99.05
2022-10-14T03:24:55.798Z,98.72
2022-10-14T03:27:42.987Z,99.46
2022-10-14T03:30:13.442Z,99.86
2022-10-14T03:32:53.273Z,100.00
2022-10-14T03:35:38.907Z,99.76
2022-10-14T03:38:10.923Z,99.99
2022-10-14T03:40:37.990Z,100.00
2022-10-14T03:43:08.553Z,100.00
2022-10-14T03:45:47.492Z,100.00
2022-10-14T03:48:17.818Z,99.87
2022-10-14T03:50:44.742Z,100.00
2022-10-14T03:53:11.708Z,100.00
2022-10-14T03:55:38.775Z,100.00
2022-10-14T03:58:06.604Z,100.00
2022-10-14T04:00:35.604Z,100.00
2022-10-14T04:03:20.744Z,100.00
2022-10-14T04:05:47.878Z,100.00
2022-10-14T04:08:18.314Z,100.00
2022-10-14T04:10:53.763Z,100.00
2022-10-14T04:13:21.563Z,100.00
2022-10-14T04:15:48.660Z,100.00
2022-10-14T04:18:37.033Z,100.00
2022-10-14T04:21:08.134Z,100.00
2022-10-14T04:23:36.880Z,100.00
2022-10-14T04:26:12.392Z,100.00
2022-10-14T04:28:39.868Z,100.00
2022-10-14T04:31:13.066Z,100.00
2022-10-14T04:33:55.337Z,100.00
2022-10-14T04:36:29.482Z,100.00
2022-10-14T04:38:58.884Z,100.00
2022-10-14T04:41:25.732Z,100.00
2022-10-14T04:43:55.395Z,100.00
2022-10-14T04:46:31.530Z,100.00
2022-10-14T04:48:59.020Z,100.00
2022-10-14T04:51:30.615Z,100.00
2022-10-14T04:54:15.820Z,100.00
2022-10-14T04:56:51.718Z,100.00
2022-10-14T04:59:21.932Z,100.00
2022-10-14T05:02:09.885Z,100.00
2022-10-14T05:04:42.383Z,100.00
2022-10-14T05:07:10.186Z,100.00
2022-10-14T05:09:38.117Z,100.00
2022-10-14T05:12:15.151Z,100.00
2022-10-14T05:14:49.481Z,100.00
2022-10-14T05:17:23.977Z,99.79
2022-10-14T05:19:51.703Z,99.87
2022-10-14T05:22:22.118Z,99.61
2022-10-14T05:24:50.641Z,99.65
2022-10-14T05:27:18.605Z,99.40
2022-10-14T05:29:46.608Z,99.42
2022-10-14T05:32:14.822Z,99.43
2022-10-14T05:34:45.598Z,99.20
2022-10-14T05:37:32.085Z,99.68
2022-10-14T05:40:00.688Z,100.00
2022-10-14T05:42:28.505Z,100.00
2022-10-14T05:44:59.009Z,99.89
2022-10-14T05:47:28.808Z,100.00
2022-10-14T05:50:03.829Z,99.60
2022-10-14T05:52:34.432Z,99.59
2022-10-14T05:55:10.348Z,99.83
2022-10-14T05:57:38.473Z,99.75
2022-10-14T06:00:07.657Z,99.53
2022-10-14T06:02:44.848Z,99.02
2022-10-14T06:05:15.710Z,98.81
2022-10-14T06:07:44.842Z,98.75
2022-10-14T06:10:15.238Z,98.46
2022-10-14T06:12:43.878Z,98.20
2022-10-14T06:15:12.932Z,97.89
2022-10-14T06:17:41.051Z,97.46
2022-10-14T06:20:10.883Z,97.28
2022-10-14T06:22:39.503Z,96.59
2022-10-14T06:25:08.060Z,96.46
2022-10-14T06:27:39.422Z,95.85
2022-10-14T06:30:08.276Z,95.52
2022-10-14T06:32:37.756Z,95.29
2022-10-14T06:35:15.311Z,95.33
2022-10-14T06:37:47.360Z,95.81
2022-10-14T06:40:15.884Z,95.59
2022-10-14T06:42:44.092Z,95.22
2022-10-14T06:45:17.133Z,94.89
2022-10-14T06:47:45.221Z,94.97
2022-10-14T06:50:14.938Z,94.76
2022-10-14T06:52:42.983Z,94.34
2022-10-14T06:55:12.163Z,93.89
2022-10-14T06:58:57.296Z,93.42
2022-10-14T07:06:23.221Z,92.71
2022-10-14T07:08:51.385Z,92.51
2022-10-14T07:11:19.873Z,92.25
2022-10-14T07:13:49.840Z,91.84
2022-10-14T07:16:18.013Z,91.47
2022-10-14T07:18:46.359Z,90.73
2022-10-14T07:21:14.650Z,90.71
2022-10-14T07:23:44.084Z,90.57
2022-10-14T07:29:28.021Z,90.38
2022-10-14T07:31:56.873Z,90.62
2022-10-14T07:37:33.415Z,90.34
2022-10-14T07:40:00.737Z,90.08
2022-10-14T07:42:28.032Z,89.61
2022-10-14T07:44:55.177Z,89.14
2022-10-14T07:47:22.724Z,88.56
2022-10-14T07:49:51.443Z,88.43
2022-10-14T07:52:19.947Z,88.39
2022-10-14T07:54:47.057Z,88.05
2022-10-14T07:57:14.204Z,87.98
2022-10-14T07:59:41.214Z,87.60
2022-10-14T08:02:08.411Z,87.50
2022-10-14T08:04:35.512Z,86.98
2022-10-14T08:07:05.017Z,86.57
2022-10-14T08:09:34.425Z,86.42
2022-10-14T08:12:02.046Z,86.09
2022-10-14T08:14:29.523Z,85.81
2022-10-14T08:16:56.952Z,85.96
2022-10-14T08:19:24.665Z,86.11
2022-10-14T08:21:52.386Z,85.67
2022-10-14T08:24:19.448Z,85.56
2022-10-14T08:26:55.809Z,84.95
2022-10-14T08:29:22.909Z,84.77
2022-10-14T08:31:52.769Z,84.29
2022-10-14T08:34:24.866Z,82.66
2022-10-14T08:36:52.482Z,82.97
2022-10-14T08:39:20.355Z,82.77
2022-10-14T08:42:32.101Z,82.57
2022-10-14T08:45:10.300Z,82.38
2022-10-14T08:47:44.288Z,83.23
2022-10-14T08:50:47.796Z,80.53
2022-10-14T08:53:31.056Z,79.61
2022-10-14T08:56:01.036Z,79.26
2022-10-14T08:58:42.649Z,78.08
2022-10-14T09:01:19.964Z,78.20
2022-10-14T09:03:47.661Z,78.65
2022-10-14T09:06:26.615Z,79.02
2022-10-14T09:08:58.873Z,79.40
2022-10-14T09:11:33.559Z,78.65
2022-10-14T09:14:03.988Z,78.15
2022-10-14T09:16:36.264Z,78.59
2022-10-14T09:19:09.154Z,78.68
2022-10-14T09:21:53.003Z,77.96
2022-10-14T09:24:27.501Z,76.35
2022-10-14T09:27:04.636Z,75.69
2022-10-14T09:29:43.154Z,75.25
2022-10-14T09:32:16.542Z,74.16
2022-10-14T09:34:49.594Z,73.33
2022-10-14T09:37:22.997Z,73.95
2022-10-14T09:39:52.071Z,73.53
2022-10-14T09:42:27.489Z,73.04
2022-10-14T09:45:25.356Z,72.48
2022-10-14T09:47:58.585Z,70.95
2022-10-14T09:50:52.098Z,71.52
2022-10-14T09:53:26.839Z,70.94
2022-10-14T09:56:00.391Z,71.20
2022-10-14T09:58:45.245Z,72.20
2022-10-14T10:01:24.719Z,71.33
2022-10-14T10:03:54.372Z,71.12
2022-10-14T10:06:26.533Z,69.96
2022-10-14T10:08:53.937Z,70.49
2022-10-14T10:11:40.072Z,70.75
2022-10-14T10:14:28.391Z,70.75
2022-10-14T10:17:08.226Z,70.86
2022-10-14T10:19:37.683Z,68.50
2022-10-14T10:22:20.766Z,67.21
2022-10-14T10:24:49.650Z,64.23
2022-10-14T10:27:32.236Z,63.18
2022-10-14T10:30:15.597Z,62.37
2022-10-14T10:33:15.046Z,61.74
2022-10-14T10:39:30.321Z,64.20
2022-10-14T10:42:25.344Z,65.21
2022-10-14T10:45:16.192Z,64.39
2022-10-14T10:48:00.270Z,63.97
2022-10-14T10:50:44.024Z,64.20
2022-10-14T10:53:29.723Z,64.16
2022-10-14T10:56:24.025Z,64.56
2022-10-14T10:59:15.955Z,64.12
2022-10-14T11:02:03.893Z,62.82
2022-10-14T11:05:01.073Z,61.92
2022-10-14T11:08:17.226Z,62.30
2022-10-14T11:11:41.630Z,61.63
2022-10-14T11:14:14.398Z,60.28
2022-10-14T11:17:09.966Z,60.62
2022-10-14T11:19:59.074Z,61.54
2022-10-14T11:22:40.169Z,60.52
2022-10-14T11:25:19.218Z,61.45
2022-10-14T11:27:55.490Z,61.34
2022-10-14T11:30:45.267Z,61.32
2022-10-14T11:33:44.910Z,61.19
2022-10-14T11:36:36.067Z,61.79
2022-10-14T11:39:20.300Z,62.27
2022-10-14T11:42:13.721Z,62.93
2022-10-14T11:44:43.557Z,63.38
2022-10-14T11:47:22.743Z,64.00
2022-10-14T11:50:23.833Z,64.91
2022-10-14T11:52:58.156Z,64.83
2022-10-14T11:55:30.169Z,64.49
2022-10-14T11:58:09.518Z,65.12
2022-10-14T12:01:02.248Z,65.28
2022-10-14T12:04:04.187Z,65.06
2022-10-14T12:06:40.015Z,63.83
2022-10-14T12:09:25.486Z,63.22
2022-10-14T12:12:04.821Z,63.63
2022-10-14T12:14:46.535Z,63.02
2022-10-14T12:17:27.917Z,63.46
2022-10-14T12:19:56.456Z,64.18
2022-10-14T12:22:25.962Z,64.45
2022-10-14T12:25:10.262Z,65.17
2022-10-14T12:27:38.040Z,66.15
2022-10-14T12:30:05.220Z,66.34
2022-10-14T12:32:32.718Z,67.34
2022-10-14T12:35:01.707Z,67.63
2022-10-14T12:37:38.217Z,68.22
2022-10-14T12:40:06.799Z,68.55
2022-10-14T12:42:51.911Z,69.09
2022-10-14T12:45:27.060Z,69.16
2022-10-14T12:48:03.147Z,69.04
2022-10-14T12:50:35.604Z,69.78
2022-10-14T12:53:14.346Z,69.89
2022-10-14T12:55:51.355Z,70.14
2022-10-14T12:58:30.115Z,69.61
2022-10-14T13:01:19.104Z,69.72
2022-10-14T13:03:55.190Z,71.22
2022-10-14T13:06:30.738Z,73.32
2022-10-14T13:09:30.650Z,74.36
2022-10-14T13:11:57.950Z,76.54
2022-10-14T13:14:30.072Z,77.88
2022-10-14T13:16:59.901Z,78.66
2022-10-14T13:19:32.898Z,78.91
2022-10-14T13:22:01.929Z,79.43
2022-10-14T13:24:40.409Z,80.56
2022-10-14T13:27:34.222Z,81.23
2022-10-14T13:30:16.173Z,82.73
2022-10-14T13:32:48.539Z,84.35
2022-10-14T13:35:32.711Z,84.90
2022-10-14T13:38:06.706Z,86.45
2022-10-14T13:40:59.571Z,87.34
2022-10-14T13:43:39.334Z,88.51
2022-10-14T13:46:16.304Z,88.83
2022-10-14T13:48:51.702Z,89.58
2022-10-14T13:51:49.111Z,90.73
2022-10-14T13:54:22.706Z,92.02
2022-10-14T13:57:12.596Z,93.29
2022-10-14T14:00:22.601Z,93.11
2022-10-14T14:02:40.008Z,92.81
2022-10-14T14:05:15.247Z,94.71
2022-10-14T14:10:31.527Z,95.70
2022-10-14T14:13:03.685Z,95.94
2022-10-14T14:15:30.679Z,96.32
2022-10-14T14:17:57.671Z,96.90
2022-10-14T14:20:28.786Z,97.70
2022-10-14T14:22:59.110Z,98.96
2022-10-14T14:25:35.288Z,99.42
2022-10-14T14:28:15.342Z,100.00
2022-10-14T14:30:54.319Z,100.00
2022-10-14T14:33:32.393Z,100.00
2022-10-14T14:36:03.967Z,100.00
2022-10-14T14:38:33.922Z,100.00
2022-10-14T14:41:24.558Z,100.00
2022-10-14T14:44:24.003Z,100.00
2022-10-14T14:46:45.392Z,100.00
2022-10-14T14:49:17.801Z,100.00
2022-10-14T14:51:46.114Z,100.00
2022-10-14T14:54:18.914Z,100.00
2022-10-14T14:56:52.460Z,100.00
2022-10-14T14:59:26.495Z,100.00
2022-10-14T15:01:54.673Z,100.00
2022-10-14T15:04:25.427Z,100.00
2022-10-14T15:06:59.934Z,100.00
2022-10-14T15:09:45.030Z,100.00
2022-10-14T15:12:22.590Z,100.00
2022-10-14T15:14:51.424Z,100.00
2022-10-14T15:17:39.683Z,100.00
2022-10-14T15:20:33.973Z,100.00
2022-10-14T15:23:00.965Z,100.00
2022-10-14T15:25:31.197Z,100.00
2022-10-14T15:28:00.083Z,100.00
2022-10-14T15:30:37.434Z,100.00
2022-10-14T15:33:18.056Z,100.00
2022-10-14T15:35:46.651Z,100.00
2022-10-14T15:38:16.674Z,100.00
2022-10-14T15:40:45.435Z,100.00
2022-10-14T15:43:20.392Z,100.00
2022-10-14T15:46:24.986Z,100.00
2022-10-14T15:48:58.600Z,100.00
2022-10-14T15:51:30.786Z,100.00
2022-10-14T15:53:58.312Z,100.00
2022-10-14T15:56:25.137Z,100.00
2022-10-14T15:58:52.144Z,100.00
2022-10-14T16:01:23.835Z,98.62
2022-10-14T16:03:52.479Z,97.19
2022-10-14T16:06:22.505Z,95.43
2022-10-14T16:08:49.719Z,92.97
2022-10-14T16:11:22.667Z,90.44
2022-10-14T16:13:49.605Z,88.20
2022-10-14T16:16:21.971Z,88.14
2022-10-14T16:18:48.895Z,86.38
2022-10-14T16:21:17.198Z,85.33
2022-10-14T16:23:44.791Z,86.20
2022-10-14T16:26:13.873Z,85.63
2022-10-14T16:28:40.912Z,84.55
2022-10-14T16:31:12.571Z,83.84
2022-10-14T16:33:41.838Z,83.46
2022-10-14T16:36:14.728Z,82.88
2022-10-14T16:38:41.672Z,83.02
2022-10-14T16:41:11.228Z,82.76
2022-10-14T16:43:38.690Z,83.10
2022-10-14T16:46:10.359Z,82.40
2022-10-14T16:48:39.529Z,82.77
2022-10-14T16:51:06.714Z,82.56
2022-10-14T16:53:44.987Z,82.99
2022-10-14T16:56:36.230Z,83.15
2022-10-14T16:59:04.268Z,82.75
2022-10-14T17:01:32.039Z,83.16
2022-10-14T17:03:59.352Z,83.49
2022-10-14T17:06:26.693Z,83.14
2022-10-14T17:08:53.991Z,83.23
2022-10-14T17:11:21.298Z,83.08
2022-10-14T17:13:52.715Z,84.10
2022-10-14T17:16:19.697Z,84.20
2022-10-14T17:21:18.699Z,85.03
2022-10-14T17:23:45.779Z,85.16
2022-10-14T17:26:21.081Z,85.23
2022-10-14T17:28:48.581Z,85.38
2022-10-14T17:31:22.856Z,85.54
2022-10-14T17:33:50.177Z,85.93
2022-10-14T17:36:20.040Z,86.05
2022-10-14T17:38:48.532Z,85.89
2022-10-14T17:41:15.794Z,85.61
2022-10-14T17:43:45.991Z,85.80
2022-10-14T17:46:13.411Z,85.66
2022-10-14T17:48:42.570Z,85.40
2022-10-14T17:51:13.616Z,85.14
2022-10-14T17:53:40.749Z,84.79
2022-10-14T17:56:10.673Z,84.81
2022-10-14T17:58:37.935Z,84.95
2022-10-14T18:01:16.849Z,85.02
2022-10-14T18:03:45.090Z,85.36
2022-10-14T18:06:27.079Z,85.78
2022-10-14T18:09:05.866Z,85.47
2022-10-14T18:11:56.118Z,85.30
2022-10-14T18:14:22.461Z,85.57
2022-10-14T18:16:49.275Z,85.48
2022-10-14T18:19:41.704Z,85.34
2022-10-14T18:22:11.197Z,85.35
2022-10-14T18:24:39.429Z,85.33
2022-10-14T18:27:06.520Z,85.96
2022-10-14T18:29:33.382Z,86.20
2022-10-14T18:32:00.226Z,86.76
2022-10-14T18:34:27.751Z,86.76
2022-10-14T18:36:54.771Z,86.92
2022-10-14T18:39:21.834Z,87.53
2022-10-14T18:41:49.320Z,87.89
2022-10-14T18:44:16.180Z,88.05
2022-10-14T18:46:43.637Z,88.01
2022-10-14T18:49:11.509Z,88.20
2022-10-14T18:51:40.234Z,88.14
2022-10-14T18:54:15.740Z,87.87
2022-10-14T18:56:43.710Z,88.24
2022-10-14T18:59:13.989Z,88.84
2022-10-14T19:01:54.944Z,88.32
2022-10-14T19:04:29.991Z,88.22
2022-10-14T19:06:56.961Z,88.25
2022-10-14T19:09:30.808Z,87.23
2022-10-14T19:12:49.605Z,87.00
2022-10-14T19:15:18.372Z,87.39
2022-10-14T19:17:50.915Z,87.50
2022-10-14T19:20:21.026Z,87.22
2022-10-14T19:22:47.894Z,87.34
2022-10-14T19:25:16.609Z,87.02
2022-10-14T19:27:44.235Z,87.42
2022-10-14T19:30:11.533Z,87.23
2022-10-14T19:32:38.526Z,87.68
2022-10-14T19:35:05.839Z,87.52
2022-10-14T19:37:32.675Z,87.71
2022-10-14T19:39:59.838Z,87.38
2022-10-14T19:42:26.824Z,87.64
2022-10-14T19:44:53.678Z,87.35
2022-10-14T19:47:20.785Z,87.91
2022-10-14T19:49:48.187Z,87.59
2022-10-14T19:52:15.070Z,88.46
2022-10-14T19:54:43.051Z,88.69
2022-10-14T19:57:09.835Z,88.57
2022-10-14T19:59:36.713Z,88.70
2022-10-14T20:02:03.802Z,88.78
2022-10-14T20:04:30.620Z,88.76
2022-10-14T20:06:57.490Z,88.68
2022-10-14T20:09:24.420Z,88.80
2022-10-14T20:11:52.469Z,88.92
2022-10-14T20:14:19.388Z,89.12
2022-10-14T20:16:46.345Z,89.15
2022-10-14T20:19:13.243Z,89.27
2022-10-14T20:21:40.031Z,89.77
2022-10-14T20:24:07.092Z,89.84
2022-10-14T20:26:34.543Z,90.33
2022-10-14T20:29:01.376Z,90.31
2022-10-14T20:31:28.285Z,90.67
2022-10-14T20:33:56.896Z,91.33
2022-10-14T20:36:24.293Z,90.98
2022-10-14T20:38:51.685Z,90.91
2022-10-14T20:41:19.931Z,90.89
2022-10-14T20:43:47.431Z,91.08
2022-10-14T20:46:15.184Z,90.81
2022-10-14T20:48:42.403Z,90.92
2022-10-14T20:51:12.704Z,90.86
2022-10-14T20:56:13.149Z,91.15
2022-10-14T20:58:40.634Z,90.94
2022-10-14T21:01:13.622Z,91.42
2022-10-14T21:03:42.480Z,91.72
2022-10-14T21:06:12.201Z,91.76
2022-10-14T21:08:39.666Z,92.23
2022-10-14T21:11:14.052Z,92.13
2022-10-14T21:13:47.121Z,92.13
2022-10-14T21:16:14.199Z,92.24
2022-10-14T21:18:44.446Z,92.46
2022-10-14T21:21:14.306Z,92.78
2022-10-14T21:23:44.085Z,92.83
2022-10-14T21:26:11.039Z,93.03
2022-10-14T21:28:37.829Z,93.50
2022-10-14T21:31:07.277Z,93.80
2022-10-14T21:33:34.700Z,93.77
2022-10-14T21:36:05.906Z,93.32
2022-10-14T21:38:32.923Z,93.90
2022-10-14T21:41:01.016Z,93.79
2022-10-14T21:43:29.682Z,93.78
2022-10-14T21:45:56.607Z,93.94
2022-10-14T21:48:23.559Z,94.21
2022-10-14T21:51:01.814Z,94.15
2022-10-14T21:53:31.082Z,94.26
2022-10-14T21:55:58.559Z,94.70
2022-10-14T21:58:26.502Z,95.17
2022-10-14T22:01:01.694Z,95.03
2022-10-14T22:03:28.824Z,94.87
2022-10-14T22:06:02.625Z,94.88
2022-10-14T22:08:31.463Z,95.40
2022-10-14T22:10:58.409Z,96.44
2022-10-14T22:13:25.974Z,97.53
2022-10-14T22:15:53.479Z,97.88
2022-10-14T22:18:21.412Z,98.60
2022-10-14T22:20:49.885Z,99.19
2022-10-14T22:23:17.391Z,99.37
2022-10-14T22:25:44.492Z,99.37
2022-10-14T22:28:11.628Z,99.75
2022-10-14T22:30:38.470Z,99.79
2022-10-14T22:35:33.315Z,99.92
2022-10-14T22:38:00.211Z,100.00
2022-10-14T22:40:27.148Z,100.00
2022-10-14T22:42:54.337Z,100.00
2022-10-14T22:45:21.111Z,99.57
2022-10-14T22:47:48.045Z,100.00
2022-10-14T22:50:14.896Z,100.00
2022-10-14T22:52:41.815Z,100.00
2022-10-14T22:55:09.325Z,99.93
2022-10-14T22:57:36.381Z,100.00
2022-10-14T23:00:05.396Z,100.00
2022-10-14T23:02:32.465Z,100.00
2022-10-14T23:04:59.463Z,100.00
2022-10-14T23:07:28.898Z,100.00
2022-10-14T23:09:56.148Z,100.00
2022-10-14T23:12:23.171Z,100.00
2022-10-14T23:14:51.375Z,100.00
2022-10-14T23:17:18.278Z,100.00
2022-10-14T23:19:46.773Z,100.00
2022-10-14T23:22:13.807Z,100.00
2022-10-14T23:24:40.722Z,100.00
2022-10-14T23:27:07.615Z,100.00
2022-10-14T23:29:34.517Z,100.00
2022-10-14T23:32:02.938Z,100.00
2022-10-14T23:34:30.554Z,100.00
2022-10-14T23:36:57.504Z,100.00
2022-10-14T23:39:24.418Z,100.00
2022-10-14T23:41:51.295Z,100.00
2022-10-14T23:44:18.313Z,100.00
2022-10-14T23:46:45.743Z,100.00
2022-10-14T23:49:26.788Z,100.00
2022-10-14T23:51:55.263Z,100.00
2022-10-14T23:54:22.256Z,100.00
2022-10-14T23:56:49.228Z,100.00
2022-10-14T23:59:16.218Z,100.00
